Time;durP1;ratioP1;P1;durP2;ratioP2;P2;SDS_P1;SDS_P2;PMS_P1;PMS_P2;Temp;Humidity;BMP_temperature;BMP_pressure;BME280_temperature;BME280_humidity;BME280_pressure;Samples;Min_cycle;Max_cycle;Signal;HPM_P1;HPM_P2
2022/09/23 00:02:37;;;;;;;;;;;;;;;11.67;100.00;101014.97;10518099;28;19939;-70
2022/09/23 00:07:41;;;;;;;;;;;;;;;11.47;100.00;101014.16;10502710;28;20023;-67
2022/09/23 00:12:44;;;;;;;;;;;;;;;11.63;100.00;101008.88;10506937;28;19959;-71
2022/09/23 00:17:48;;;;;;;;;;;;;;;11.61;100.00;101007.19;10508342;28;19931;-74
2022/09/23 00:22:52;;;;;;;;;;;;;;;11.55;100.00;101010.66;10507933;28;20045;-71
2022/09/23 00:27:55;;;;;;;;;;;;;;;11.57;100.00;101003.72;10508013;28;19924;-71
2022/09/23 00:32:59;;;;;;;;;;;;;;;11.48;100.00;100998.56;10507762;28;20011;-72
2022/09/23 00:38:02;;;;;;;;;;;;;;;11.49;100.00;100997.66;10507834;28;19940;-75
2022/09/23 00:43:05;;;;;;;;;;;;;;;11.51;100.00;101006.34;10507086;28;20023;-71
2022/09/23 00:48:14;;;;;;;;;;;;;;;11.37;100.00;101000.31;10507334;28;20019;-73
2022/09/23 00:53:21;;;;;;;;;;;;;;;11.33;100.00;101003.81;10506901;28;20004;-76
2022/09/23 00:58:26;;;;;;;;;;;;;;;11.38;100.00;101002.06;10507575;28;19989;-71
2022/09/23 01:03:31;;;;;;;;;;;;;;;11.34;100.00;100996.84;10506442;28;19925;-74
2022/09/23 01:08:34;;;;;;;;;;;;;;;11.31;100.00;100994.28;10506385;28;19935;-74
2022/09/23 01:13:43;;;;;;;;;;;;;;;11.31;100.00;100997.75;10505741;28;19934;-74
2022/09/23 01:18:49;;;;;;;;;;;;;;;11.25;100.00;100991.72;10506084;28;20019;-72
2022/09/23 01:24:12;;;;;;;;;;;;;;;11.25;100.00;100986.50;10505421;28;19928;-75
2022/09/23 01:29:29;;;;;;;;;;;;;;;11.17;100.00;100994.31;10506013;28;20081;-74
2022/09/23 01:34:36;;;;;;;;;;;;;;;11.22;100.00;100984.78;10505228;28;19924;-74
2022/09/23 01:39:43;;;;;;;;;;;;;;;11.20;100.00;100983.91;10504940;28;20016;-72
2022/09/23 01:44:51;;;;;;;;;;;;;;;11.20;100.00;100990.84;10505038;28;19936;-73
2022/09/23 01:49:57;;;;;;;;;;;;;;;11.23;100.00;100978.69;10505996;28;19932;-72
2022/09/23 01:55:04;;;;;;;;;;;;;;;11.24;100.00;100982.16;10505119;28;19925;-73
2022/09/23 02:00:10;;;;;;;;;;;;;;;11.33;100.00;100985.63;10504155;28;19956;-71
2022/09/23 02:05:17;;;;;;;;;;;;;;;11.34;100.00;100974.34;10503850;28;19939;-73
2022/09/23 02:10:23;;;;;;;;;;;;;;;11.39;100.00;100985.59;10503735;28;20250;-73
2022/09/23 02:15:32;;;;;;;;;;;;;;;11.41;100.00;100978.66;10503852;28;19952;-72
2022/09/23 02:20:38;;;;;;;;;;;;;;;11.39;100.00;100982.97;10503825;28;19943;-73
2022/09/23 02:25:44;;;;;;;;;;;;;;;11.35;100.00;100980.41;10502070;28;19991;-75
2022/09/23 02:30:50;;;;;;;;;;;;;;;11.29;100.00;100983.88;10503213;28;20384;-71
2022/09/23 02:35:58;;;;;;;;;;;;;;;11.26;100.00;100978.72;10502343;28;19928;-71
2022/09/23 02:41:04;;;;;;;;;;;;;;;11.24;100.00;100982.16;10502413;28;19925;-73
2022/09/23 02:46:07;;;;;;;;;;;;;;;11.24;100.00;100980.44;10502280;28;19924;-73
2022/09/23 02:51:12;;;;;;;;;;;;;;;11.18;100.00;100980.44;10502150;28;19924;-75
2022/09/23 02:56:16;;;;;;;;;;;;;;;11.17;100.00;100989.13;10503692;28;20022;-70
2022/09/23 03:01:31;;;;;;;;;;;;;;;11.19;100.00;100989.09;10501855;28;19936;-73
2022/09/23 03:06:42;;;;;;;;;;;;;;;11.23;100.00;100986.47;10501751;28;20005;-75
2022/09/23 03:11:48;;;;;;;;;;;;;;;11.22;100.00;100983.91;9797794;28;10001440;-75
2022/09/23 03:16:57;;;;;;;;;;;;;;;11.31;100.00;100986.47;10495138;28;19934;-75
2022/09/23 03:22:04;;;;;;;;;;;;;;;11.26;100.00;100976.09;10495700;28;19925;-75
2022/09/23 03:27:12;;;;;;;;;;;;;;;11.17;100.00;100978.72;10495473;28;19935;-71
2022/09/23 03:32:16;;;;;;;;;;;;;;;11.20;100.00;100980.47;10500930;28;19958;-73
2022/09/23 03:37:25;;;;;;;;;;;;;;;11.28;100.00;100978.69;10501277;28;19924;-76
2022/09/23 03:42:29;;;;;;;;;;;;;;;11.20;100.00;100972.66;10500853;28;20023;-74
2022/09/23 03:47:32;;;;;;;;;;;;;;;11.21;100.00;100972.66;10501372;28;19930;-71
2022/09/23 03:52:38;;;;;;;;;;;;;;;11.15;100.00;100969.19;10500626;28;20237;-72
2022/09/23 03:57:41;;;;;;;;;;;;;;;11.08;100.00;100970.09;10501053;28;19929;-71
2022/09/23 04:02:44;;;;;;;;;;;;;;;11.10;100.00;100966.63;10500403;28;20023;-77
2022/09/23 04:07:49;;;;;;;;;;;;;;;11.10;100.00;100970.94;10500316;28;19924;-77
2022/09/23 04:12:52;;;;;;;;;;;;;;;11.03;100.00;100964.91;10500313;28;20316;-71
2022/09/23 04:17:55;;;;;;;;;;;;;;;11.04;100.00;100966.66;10500048;28;19939;-73
2022/09/23 04:23:00;;;;;;;;;;;;;;;10.88;100.00;100972.72;10500041;28;19928;-71
2022/09/23 04:28:03;;;;;;;;;;;;;;;10.91;100.00;100975.31;10500601;28;20069;-74
2022/09/23 04:33:06;;;;;;;;;;;;;;;10.92;100.00;100977.06;10499947;28;19934;-73
2022/09/23 04:38:10;;;;;;;;;;;;;;;10.81;100.00;100978.78;10499828;28;20269;-72
2022/09/23 04:43:14;;;;;;;;;;;;;;;10.80;100.00;100979.69;10499695;28;19925;-77
2022/09/23 04:48:17;;;;;;;;;;;;;;;10.89;100.00;100982.22;10504581;28;19937;-71
2022/09/23 04:53:22;;;;;;;;;;;;;;;10.94;100.00;100980.50;10506682;28;19924;-74
2022/09/23 04:58:25;;;;;;;;;;;;;;;10.87;100.00;100978.78;10506925;28;20345;-72
2022/09/23 05:03:29;;;;;;;;;;;;;;;10.89;100.00;100971.84;10506330;28;19974;-75
2022/09/23 05:08:33;;;;;;;;;;;;;;;10.79;100.00;100975.31;10506778;28;20008;-71
2022/09/23 05:13:36;;;;;;;;;;;;;;;10.80;100.00;100974.47;10506034;28;20015;-69
2022/09/23 05:18:41;;;;;;;;;;;;;;;10.87;100.00;100973.56;10506203;28;19963;-72
2022/09/23 05:23:48;;;;;;;;;;;;;;;10.86;100.00;100979.66;10506002;28;19935;-75
2022/09/23 05:28:52;;;;;;;;;;;;;;;10.94;100.00;100977.06;10505947;28;19925;-76
2022/09/23 05:33:57;;;;;;;;;;;;;;;10.92;100.00;100977.06;10170292;28;10000358;-75
2022/09/23 05:39:01;;;;;;;;;;;;;;;10.99;100.00;100978.75;10536709;28;20026;-76
2022/09/23 05:44:04;;;;;;;;;;;;;;;10.93;100.00;100983.09;10539054;28;19960;-76
2022/09/23 05:49:08;;;;;;;;;;;;;;;11.00;100.00;100985.69;10539986;28;20340;-75
2022/09/23 05:54:13;;;;;;;;;;;;;;;11.03;100.00;100990.88;10530117;28;19939;-76
2022/09/23 05:59:16;;;;;;;;;;;;;;;11.25;100.00;100986.50;10536764;28;20027;-78
2022/09/23 06:04:19;;;;;;;;;;;;;;;11.39;100.00;100988.19;10540154;28;19928;-76
2022/09/23 06:09:24;;;;;;;;;;;;;;;11.55;100.00;100996.78;10539617;28;19924;-74
2022/09/23 06:14:27;;;;;;;;;;;;;;;11.55;100.00;100987.25;10539153;28;20359;-75
2022/09/23 06:19:30;;;;;;;;;;;;;;;11.56;100.00;100990.75;10538359;28;19938;-75
2022/09/23 06:24:35;;;;;;;;;;;;;;;11.58;100.00;100986.38;10538786;28;19924;-76
2022/09/23 06:29:38;;;;;;;;;;;;;;;11.55;100.00;100989.88;10538614;28;20352;-73
2022/09/23 06:34:44;;;;;;;;;;;;;;;11.64;100.00;100989.00;10538309;28;19932;-74
2022/09/23 06:39:55;;;;;;;;;;;;;;;11.74;100.00;100989.78;10522391;28;20015;-75
2022/09/23 06:44:58;;;;;;;;;;;;;;;11.69;100.00;100986.34;10540364;28;19967;-76
2022/09/23 06:50:01;;;;;;;;;;;;;;;11.61;100.00;100979.41;10539902;28;19924;-76
2022/09/23 06:55:07;;;;;;;;;;;;;;;11.51;100.00;100985.53;10538232;28;19950;-75
2022/09/23 07:00:12;;;;;;;;;;;;;;;11.66;100.00;100986.38;10537814;28;19971;-77
2022/09/23 07:05:16;;;;;;;;;;;;;;;11.62;100.00;100991.56;10537729;28;19928;-74
2022/09/23 07:10:20;;;;;;;;;;;;;;;11.74;100.00;101000.19;10536714;28;20046;-72
2022/09/23 07:15:23;;;;;;;;;;;;;;;11.86;100.00;100994.94;10537114;28;19928;-74
2022/09/23 07:20:26;;;;;;;;;;;;;;;11.92;100.00;100993.19;10537515;28;19932;-75
2022/09/23 07:25:33;;;;;;;;;;;;;;;12.02;100.00;100988.78;10536847;28;19931;-76
2022/09/23 07:30:36;;;;;;;;;;;;;;;12.01;100.00;100989.69;10536714;28;19934;-77
2022/09/23 07:35:42;;;;;;;;;;;;;;;12.08;100.00;100984.41;10569897;28;20007;-77
2022/09/23 07:40:46;;;;;;;;;;;;;;;12.24;100.00;100980.84;10497540;28;20028;-74
2022/09/23 07:45:50;;;;;;;;;;;;;;;12.30;100.00;100982.53;10534520;28;20322;-76
2022/09/23 07:50:53;;;;;;;;;;;;;;;12.33;97.97;100977.31;10511798;28;19925;-76
2022/09/23 07:55:58;;;;;;;;;;;;;;;12.40;97.36;100976.38;10535844;28;20550;-77
2022/09/23 08:01:02;;;;;;;;;;;;;;;12.52;95.74;100958.06;10536166;28;19924;-80
2022/09/23 08:06:07;;;;;;;;;;;;;;;12.51;91.78;100965.00;10536998;28;19932;-77
2022/09/23 08:11:13;;;;;;;;;;;;;;;12.72;92.08;100972.63;10536356;28;20027;-78
2022/09/23 08:16:16;;;;;;;;;;;;;;;12.81;91.20;100963.88;10537349;28;19932;-78
2022/09/23 08:21:19;;;;;;;;;;;;;;;12.88;89.16;100957.72;10542903;28;19924;-80
2022/09/23 08:26:24;;;;;;;;;;;;;;;12.91;90.02;100949.88;10527316;28;19959;-77
2022/09/23 08:31:27;;;;;;;;;;;;;;;13.22;88.89;100945.25;10543640;28;20014;-76
2022/09/23 08:36:30;;;;;;;;;;;;;;;13.29;87.09;100947.75;10543491;28;19928;-77
2022/09/23 08:41:39;;;;;;;;;;;;;;;13.44;85.95;100947.56;10543640;28;19939;-78
2022/09/23 08:46:45;;;;;;;;;;;;;;;13.61;84.23;100947.38;10543049;28;19924;-77
2022/09/23 08:51:49;;;;;;;;;;;;;;;13.77;84.07;100946.28;10543536;28;19967;-79
2022/09/23 08:56:56;;;;;;;;;;;;;;;13.80;82.45;100947.06;10543225;28;19971;-75
2022/09/23 09:02:00;;;;;;;;;;;;;;;13.86;80.95;100940.91;10542887;28;19943;-77
2022/09/23 09:07:12;;;;;;;;;;;;;;;14.04;81.00;100934.56;10542389;28;20252;-73
2022/09/23 09:12:41;;;;;;;;;;;;;;;14.05;78.76;100936.31;10541842;28;19950;-76
2022/09/23 09:17:48;;;;;;;;;;;;;;;14.07;77.62;100930.16;10541214;28;19977;-77
2022/09/23 09:22:56;;;;;;;;;;;;;;;14.33;76.00;100917.59;10541875;28;19928;-75
2022/09/23 09:28:01;;;;;;;;;;;;;;;14.86;74.10;100920.13;10541283;28;20383;-75
2022/09/23 09:33:06;;;;;;;;;;;;;;;14.93;72.80;100913.03;10540215;28;19928;-73
2022/09/23 09:38:09;;;;;;;;;;;;;;;15.16;71.06;100917.81;10540622;28;19924;-75
2022/09/23 09:43:22;;;;;;;;;;;;;;;15.33;72.02;100906.13;10541429;28;19934;-77
2022/09/23 09:48:31;;;;;;;;;;;;;;;15.54;71.39;100900.50;10524565;28;19989;-76
2022/09/23 09:53:34;;;;;;;;;;;;;;;15.47;70.49;100893.66;10542836;28;19962;-77
2022/09/23 09:58:43;;;;;;;;;;;;;;;15.98;64.24;100886.38;10541873;28;20035;-75
2022/09/23 10:03:47;;;;;;;;;;;;;;;16.66;64.09;100876.84;10540740;28;20094;-76
2022/09/23 10:09:03;;;;;;;;;;;;;;;16.67;62.90;100881.19;10540611;28;19924;-76
2022/09/23 10:14:12;;;;;;;;;;;;;;;16.68;60.12;100882.91;10540047;28;19928;-76
2022/09/23 10:19:24;;;;;;;;;;;;;;;17.13;60.38;100858.03;10540436;28;20010;-77
2022/09/23 10:24:29;;;;;;;;;;;;;;;17.48;57.94;100865.75;10539589;28;19928;-74
2022/09/23 10:29:38;;;;;;;;;;;;;;;17.40;57.38;100861.59;10539958;28;19936;-78
2022/09/23 10:34:43;;;;;;;;;;;;;;;17.86;57.18;100851.44;10539273;28;19938;-76
2022/09/23 10:50:47;;;;;;;;;;;;;;;18.83;52.46;100847.22;10503744;28;19932;-75
2022/09/23 10:56:04;;;;;;;;;;;;;;;19.42;52.71;100843.28;10532209;28;19967;-75
2022/09/23 11:01:14;;;;;;;;;;;;;;;19.78;51.38;100835.69;10535466;28;20360;-75
2022/09/23 11:06:23;;;;;;;;;;;;;;;20.11;50.11;100826.41;10536876;28;19928;-67
2022/09/23 11:11:33;;;;;;;;;;;;;;;19.89;50.90;100841.41;10536326;28;20052;-71
2022/09/23 11:16:44;;;;;;;;;;;;;;;20.05;50.09;100836.38;10537526;28;19928;-68
2022/09/23 11:21:57;;;;;;;;;;;;;;;19.56;51.59;100832.19;10537754;28;19924;-69
2022/09/23 11:27:05;;;;;;;;;;;;;;;19.55;49.75;100825.22;10537090;28;19928;-69
2022/09/23 11:32:22;;;;;;;;;;;;;;;19.69;49.24;100820.25;10541462;28;20015;-69
2022/09/23 11:37:27;;;;;;;;;;;;;;;19.05;49.71;100828.91;10539058;28;19938;-69
2022/09/23 11:42:34;;;;;;;;;;;;;;;19.89;48.10;100812.41;10537104;28;19936;-68
2022/09/23 11:47:42;;;;;;;;;;;;;;;20.36;47.19;100799.91;10536327;28;20348;-74
2022/09/23 11:52:49;;;;;;;;;;;;;;;19.37;46.09;100810.13;10536658;28;20304;-73
2022/09/23 11:57:54;;;;;;;;;;;;;;;19.30;48.28;100804.25;10543359;28;19928;-71
2022/09/23 12:03:04;;;;;;;;;;;;;;;19.35;48.29;100796.16;10545809;28;19932;-75
2022/09/23 12:08:15;;;;;;;;;;;;;;;19.63;48.24;100790.66;10532811;28;20023;-73
2022/09/23 12:13:20;;;;;;;;;;;;;;;18.92;49.71;100796.06;10535069;28;19928;-73
2022/09/23 12:18:34;;;;;;;;;;;;;;;20.22;47.11;100784.69;10543787;28;19964;-73
2022/09/23 12:23:45;;;;;;;;;;;;;;;19.03;48.25;100783.38;10544186;28;20426;-73
2022/09/23 12:28:49;;;;;;;;;;;;;;;18.50;49.31;100784.47;10527858;28;19938;-72
2022/09/23 12:33:54;;;;;;;;;;;;;;;18.03;49.38;100784.31;10504232;28;19967;-77
2022/09/23 12:39:02;;;;;;;;;;;;;;;19.10;47.76;100776.97;10527184;28;20470;-73
2022/09/23 12:44:15;;;;;;;;;;;;;;;21.33;44.59;100757.59;10568930;28;19940;-73
2022/09/23 12:49:25;;;;;;;;;;;;;;;20.32;46.32;100762.28;10543028;28;19924;-74
2022/09/23 12:54:28;;;;;;;;;;;;;;;20.88;46.22;100761.53;10542830;28;19950;-75
2022/09/23 12:59:33;;;;;;;;;;;;;;;20.42;46.99;100757.44;10542414;28;19932;-74
2022/09/23 13:10:11;;;;;;;;;;;;;;;18.59;49.90;100760.47;10541707;28;19970;-74
2022/09/23 13:15:21;;;;;;;;;;;;;;;18.88;49.67;100757.66;10543962;28;19928;-74
2022/09/23 13:20:37;;;;;;;;;;;;;;;19.19;49.02;100745.03;10543781;28;19935;-72
2022/09/23 13:25:42;;;;;;;;;;;;;;;18.98;49.70;100754.56;10541919;28;19932;-73
2022/09/23 13:30:48;;;;;;;;;;;;;;;18.68;49.64;100739.97;10541898;28;19966;-74
2022/09/23 13:35:55;;;;;;;;;;;;;;;18.01;49.89;100745.88;10546785;28;19955;-69
2022/09/23 13:40:59;;;;;;;;;;;;;;;18.35;48.96;100736.75;10540758;28;20354;-72
2022/09/23 13:46:04;;;;;;;;;;;;;;;18.60;48.64;100738.53;10543631;28;19978;-71
2022/09/23 13:51:10;;;;;;;;;;;;;;;18.87;48.40;100733.09;10546022;28;20360;-75
2022/09/23 13:56:13;;;;;;;;;;;;;;;18.83;48.12;100730.63;10545999;28;20404;-73
2022/09/23 14:01:22;;;;;;;;;;;;;;;18.77;48.29;100722.97;10545967;28;20303;-73
2022/09/23 14:06:29;;;;;;;;;;;;;;;18.80;48.20;100720.22;10545849;28;20062;-73
2022/09/23 14:11:34;;;;;;;;;;;;;;;18.75;48.36;100730.94;10545603;28;19935;-73
2022/09/23 14:16:39;;;;;;;;;;;;;;;18.33;50.26;100727.19;10545358;28;19924;-75
2022/09/23 14:21:43;;;;;;;;;;;;;;;17.89;50.38;100717.41;10542417;28;20018;-77
2022/09/23 14:26:47;;;;;;;;;;;;;;;17.57;51.11;100713.22;10536146;28;20027;-79
2022/09/23 14:31:55;;;;;;;;;;;;;;;17.38;51.65;100714.69;10544788;28;20069;-76
2022/09/23 14:42:37;;;;;;;;;;;;;;;17.18;52.74;100714.47;10542681;28;20379;-74
2022/09/23 14:47:43;;;;;;;;;;;;;;;17.12;53.35;100704.16;10535250;28;19956;-72
2022/09/23 14:52:52;;;;;;;;;;;;;;;17.00;54.03;100705.41;10543178;28;20265;-72
2022/09/23 14:58:01;;;;;;;;;;;;;;;16.87;53.89;100697.97;10540546;28;19939;-74
2022/09/23 15:03:11;;;;;;;;;;;;;;;16.79;54.40;100699.97;10538330;28;19955;-74
2022/09/23 15:08:17;;;;;;;;;;;;;;;16.79;54.64;100698.19;10542826;28;20023;-72
2022/09/23 15:13:22;;;;;;;;;;;;;;;16.71;54.99;100700.19;10542574;28;19975;-73
2022/09/23 15:18:27;;;;;;;;;;;;;;;16.68;55.33;100704.66;10533665;28;19932;-72
2022/09/23 15:23:33;;;;;;;;;;;;;;;16.65;55.21;100694.25;10185054;28;9999709;-72
2022/09/23 15:28:36;;;;;;;;;;;;;;;16.69;55.61;100690.63;10536053;28;20087;-71
2022/09/23 15:33:39;;;;;;;;;;;;;;;16.66;55.54;100685.50;10536685;28;19931;-74
2022/09/23 15:38:44;;;;;;;;;;;;;;;16.56;56.06;100686.66;10536103;28;20387;-72
2022/09/23 15:43:47;;;;;;;;;;;;;;;16.38;55.99;100692.38;10531863;28;19967;-67
2022/09/23 15:48:55;;;;;;;;;;;;;;;16.20;56.75;100696.41;10531349;28;19940;-67
2022/09/23 15:54:02;;;;;;;;;;;;;;;16.14;56.84;100694.81;10532325;28;20344;-66
2022/09/23 15:59:05;;;;;;;;;;;;;;;16.00;57.80;100702.16;10534038;28;19989;-66
2022/09/23 16:04:10;;;;;;;;;;;;;;;15.99;57.98;100705.69;10532697;28;19924;-65
2022/09/23 16:09:14;;;;;;;;;;;;;;;15.95;58.84;100701.44;10531089;28;19971;-72
2022/09/23 16:14:18;;;;;;;;;;;;;;;15.91;58.91;100697.16;10534466;28;19940;-75
2022/09/23 16:19:21;;;;;;;;;;;;;;;15.86;59.29;100700.81;10531178;28;19931;-74
2022/09/23 16:24:26;;;;;;;;;;;;;;;15.72;59.91;100702.94;10534227;28;19981;-73
2022/09/23 16:29:30;;;;;;;;;;;;;;;15.64;61.86;100707.50;10532323;28;20019;-74
2022/09/23 16:34:33;;;;;;;;;;;;;;;15.53;63.16;100712.16;10534913;28;20365;-78
2022/09/23 16:39:38;;;;;;;;;;;;;;;15.47;63.84;100718.38;10522231;28;19931;-74
2022/09/23 16:44:41;;;;;;;;;;;;;;;15.36;64.54;100720.34;10542902;28;20354;-75
2022/09/23 16:49:44;;;;;;;;;;;;;;;15.24;65.92;100702.34;10543926;28;19928;-73
2022/09/23 16:54:49;;;;;;;;;;;;;;;15.15;66.96;100707.81;10542694;28;19924;-75
2022/09/23 17:05:15;;;;;;;;;;;;;;;14.92;69.71;100702.22;10544830;28;19934;-71
2022/09/23 17:10:20;;;;;;;;;;;;;;;14.77;70.94;100706.00;10543405;28;19924;-70
2022/09/23 17:15:23;;;;;;;;;;;;;;;14.67;72.21;100709.72;10542126;28;19930;-72
2022/09/23 17:20:26;;;;;;;;;;;;;;;14.60;72.99;100707.28;10554042;28;20015;-72
2022/09/23 17:25:31;;;;;;;;;;;;;;;14.46;74.50;100709.31;10558803;28;19946;-74
2022/09/23 17:30:34;;;;;;;;;;;;;;;14.42;75.64;100703.31;10539871;28;20015;-72
2022/09/23 17:35:38;;;;;;;;;;;;;;;14.46;75.90;100712.78;10530587;28;19928;-73
2022/09/23 17:40:50;;;;;;;;;;;;;;;14.52;76.65;100714.41;10540761;28;20368;-72
2022/09/23 17:45:54;;;;;;;;;;;;;;;14.52;77.22;100722.25;10541030;28;19955;-75
2022/09/23 17:50:57;;;;;;;;;;;;;;;14.54;77.42;100715.25;10529337;28;19959;-70
2022/09/23 17:56:04;;;;;;;;;;;;;;;14.65;75.82;100716.72;10539642;28;20019;-72
2022/09/23 18:01:08;;;;;;;;;;;;;;;14.65;76.26;100718.50;10539943;28;19981;-72
2022/09/23 18:06:12;;;;;;;;;;;;;;;14.71;76.65;100716.63;10540179;28;19962;-73
2022/09/23 18:11:18;;;;;;;;;;;;;;;14.73;77.46;100719.19;10540109;28;19928;-77
2022/09/23 18:16:23;;;;;;;;;;;;;;;14.76;77.54;100722.59;10539263;28;19962;-76
2022/09/23 18:21:28;;;;;;;;;;;;;;;14.81;76.38;100728.59;10542643;28;19934;-72
2022/09/23 18:26:33;;;;;;;;;;;;;;;14.79;75.12;100735.59;10538871;28;19924;-75
2022/09/23 18:31:36;;;;;;;;;;;;;;;14.79;75.52;100732.97;10538772;28;19934;-74
2022/09/23 18:36:40;;;;;;;;;;;;;;;14.80;75.94;100733.84;10539252;28;19932;-71
2022/09/23 18:41:44;;;;;;;;;;;;;;;14.79;77.02;100737.34;10539076;28;20400;-72
2022/09/23 18:46:48;;;;;;;;;;;;;;;14.73;77.02;100732.25;10540266;28;20015;-71
2022/09/23 18:51:53;;;;;;;;;;;;;;;14.71;76.55;100734.91;10541047;28;19935;-74
2022/09/23 18:57:00;;;;;;;;;;;;;;;14.68;76.93;100734.97;10539468;28;19939;-73
2022/09/23 19:02:03;;;;;;;;;;;;;;;14.67;77.57;100732.38;10537812;28;19994;-73
2022/09/23 19:07:06;;;;;;;;;;;;;;;14.61;77.94;100740.34;10536769;28;19985;-73
2022/09/23 19:12:11;;;;;;;;;;;;;;;14.61;76.98;100729.91;10537192;28;20349;-74
2022/09/23 19:17:15;;;;;;;;;;;;;;;14.66;77.17;100733.28;10537002;28;20424;-74
2022/09/23 19:22:18;;;;;;;;;;;;;;;14.65;77.70;100732.41;10537466;28;19924;-74
2022/09/23 19:27:25;;;;;;;;;;;;;;;14.63;78.13;100738.56;10535898;28;20023;-66
2022/09/23 19:32:28;;;;;;;;;;;;;;;14.48;79.49;100739.72;10523564;28;19963;-69
2022/09/23 19:37:32;;;;;;;;;;;;;;;14.39;81.23;100747.72;10532585;28;19940;-75
2022/09/23 19:42:36;;;;;;;;;;;;;;;14.52;80.36;100750.97;10530960;28;19928;-72
2022/09/23 19:47:40;;;;;;;;;;;;;;;14.55;79.67;100746.56;10500324;28;19928;-76
2022/09/23 19:52:43;;;;;;;;;;;;;;;14.60;79.70;100749.09;10494150;28;20031;-72
2022/09/23 19:57:47;;;;;;;;;;;;;;;14.55;80.47;100743.06;10495188;28;19929;-74
2022/09/23 20:02:51;;;;;;;;;;;;;;;14.49;81.24;100737.97;10520273;28;19935;-73
2022/09/23 20:07:54;;;;;;;;;;;;;;;14.44;81.06;100740.69;10535754;28;19938;-74
2022/09/23 20:12:59;;;;;;;;;;;;;;;14.38;82.34;100735.56;10526884;28;19975;-73
2022/09/23 20:18:02;;;;;;;;;;;;;;;14.31;82.90;100740.94;10500741;28;20011;-75
2022/09/23 20:23:05;;;;;;;;;;;;;;;14.08;84.54;100735.28;10551303;28;20011;-68
2022/09/23 20:28:09;;;;;;;;;;;;;;;13.96;85.21;100732.88;10545166;28;19924;-71
2022/09/23 20:33:13;;;;;;;;;;;;;;;13.91;85.93;100728.59;10544608;28;20324;-71
2022/09/23 20:38:16;;;;;;;;;;;;;;;14.00;85.63;100718.88;10543811;28;20046;-73
2022/09/23 20:43:21;;;;;;;;;;;;;;;13.96;86.23;100725.06;10514815;28;20022;-73
2022/09/23 20:48:24;;;;;;;;;;;;;;;13.94;86.70;100727.69;10549263;28;20006;-74
2022/09/23 20:53:27;;;;;;;;;;;;;;;13.91;86.81;100727.72;10528803;28;19935;-76
2022/09/23 20:58:35;;;;;;;;;;;;;;;13.80;87.41;100732.28;10507209;28;19951;-73
2022/09/23 21:03:39;;;;;;;;;;;;;;;13.74;88.16;100728.03;10506426;28;19924;-75
2022/09/23 21:08:43;;;;;;;;;;;;;;;13.68;88.28;100716.84;10506110;28;20272;-75
2022/09/23 21:13:48;;;;;;;;;;;;;;;13.61;88.20;100721.31;10506651;28;20007;-73
2022/09/23 21:18:51;;;;;;;;;;;;;;;13.49;88.87;100721.50;10525624;28;19928;-72
2022/09/23 21:23:54;;;;;;;;;;;;;;;13.41;89.01;100723.38;10547667;28;20055;-72
2022/09/23 21:29:18;;;;;;;;;;;;;;;13.35;89.73;100725.22;10527746;28;20375;-74
2022/09/23 21:34:24;;;;;;;;;;;;;;;13.32;89.26;100720.88;10544856;28;20023;-75
2022/09/23 21:39:27;;;;;;;;;;;;;;;13.18;90.32;100722.88;10547045;28;20003;-71
2022/09/23 21:44:32;;;;;;;;;;;;;;;13.16;90.51;100724.63;10545404;28;20325;-75
2022/09/23 21:49:35;;;;;;;;;;;;;;;13.18;90.63;100724.59;10546217;28;19924;-71
2022/09/23 21:54:38;;;;;;;;;;;;;;;13.17;91.61;100723.75;10546325;28;19935;-73
2022/09/23 21:59:43;;;;;;;;;;;;;;;13.16;92.20;100726.38;10546237;28;19924;-75
2022/09/23 22:04:46;;;;;;;;;;;;;;;13.18;92.56;100720.25;10545965;28;19925;-71
2022/09/23 22:09:49;;;;;;;;;;;;;;;13.05;94.43;100723.91;10546254;28;19963;-68
2022/09/23 22:14:53;;;;;;;;;;;;;;;13.06;94.36;100730.00;10545752;28;19924;-69
2022/09/23 22:19:57;;;;;;;;;;;;;;;13.02;94.88;100716.16;10545382;28;20408;-68
2022/09/23 22:25:00;;;;;;;;;;;;;;;13.05;94.75;100717.84;10545767;28;19985;-75
2022/09/23 22:35:25;;;;;;;;;;;;;;;12.96;94.37;100717.97;10545225;28;20007;-74
2022/09/23 22:40:28;;;;;;;;;;;;;;;12.88;94.32;100707.63;10544336;28;20020;-73
2022/09/23 22:45:33;;;;;;;;;;;;;;;12.80;94.88;100712.09;10544717;28;19934;-74
2022/09/23 22:50:38;;;;;;;;;;;;;;;12.74;95.16;100709.56;10544007;28;19980;-74
2022/09/23 22:55:41;;;;;;;;;;;;;;;12.65;95.70;100709.66;10543934;28;20015;-72
2022/09/23 23:00:46;;;;;;;;;;;;;;;12.60;96.22;100704.53;10543909;28;19924;-75
2022/09/23 23:05:49;;;;;;;;;;;;;;;12.54;95.91;100698.53;10543477;28;20252;-73
2022/09/23 23:10:53;;;;;;;;;;;;;;;12.51;96.54;100699.44;10191507;28;10000535;-75
2022/09/23 23:16:03;;;;;;;;;;;;;;;12.44;96.61;100699.53;10537176;28;19957;-73
2022/09/23 23:21:07;;;;;;;;;;;;;;;12.40;97.01;100692.66;10537724;28;20245;-73
2022/09/23 23:26:11;;;;;;;;;;;;;;;12.37;97.05;100692.69;10537519;28;19934;-75
2022/09/23 23:31:17;;;;;;;;;;;;;;;12.33;97.31;100684.06;10537601;28;19928;-75
2022/09/23 23:36:21;;;;;;;;;;;;;;;12.06;98.42;100683.50;10536620;28;20427;-67
2022/09/23 23:41:24;;;;;;;;;;;;;;;12.06;99.11;100683.50;10536552;28;20023;-67
2022/09/23 23:46:30;;;;;;;;;;;;;;;12.02;100.00;100689.59;10536467;28;19980;-71
2022/09/23 23:51:33;;;;;;;;;;;;;;;12.12;98.79;100684.28;10543132;28;19924;-72
2022/09/23 23:56:36;;;;;;;;;;;;;;;12.15;97.76;100688.63;10551184;28;20014;-74
